SBI7520 UTAA-LTFG
Flight info
| Callsign | SBI7520 |
|---|---|
| Flight time | N/A |
| Altitude | 36000 |
| Route | UTAA N0440F360 MAM29D MAMED B449 DUKAN N449 INDUR UN161 ERZ UL615 SIV UA285 MUT UT339 ELROP ELRO1D ROKDU BEPTO EVBUM MA08 RW08 LTFG |
| Aircraft | B738/M-SDGIWZ/S |
Departure
| Time | 2026-04-20 22:23 |
|---|---|
| Airport | Ashgabat International Airport (UTAA) |
Arrival
| Time | N/A |
|---|---|
| Airport | Gazipaşa-Alanya Airport (LTFG) |
| Time | Latitude | Longitude | Altitude | Speed | Heading |
|---|---|---|---|---|---|
| 2026-04-20 21:22 | 37.96722 | 58.37336 | 699 ft | 0 kts | 128° |
| 2026-04-20 22:20 | 37.96704 | 58.37382 | 699 ft | 16 kts | 114° |
| 2026-04-20 22:21 | 37.96736 | 58.37512 | 699 ft | 19 kts | 39° |
| 2026-04-20 22:21 | 37.96881 | 58.37500 | 699 ft | 26 kts | 341° |
| 2026-04-20 22:21 | 37.97073 | 58.37409 | 699 ft | 30 kts | 328° |
| 2026-04-20 22:21 | 37.97236 | 58.37295 | 699 ft | 17 kts | 10° |
| 2026-04-20 22:22 | 37.97332 | 58.37299 | 699 ft | 14 kts | 310° |
| 2026-04-20 22:22 | 37.97346 | 58.37275 | 699 ft | 0 kts | 302° |
| 2026-04-20 22:22 | 37.97477 | 58.36979 | 699 ft | 76 kts | 297° |
| 2026-04-20 22:23 | 37.97850 | 58.36140 | 699 ft | 138 kts | 299° |
| 2026-04-20 22:23 | 37.98405 | 58.34906 | 812 ft | 176 kts | 299° |
| 2026-04-20 22:23 | 37.99003 | 58.33555 | 1485 ft | 179 kts | 298° |
| 2026-04-20 22:23 | 37.99589 | 58.32211 | 2323 ft | 179 kts | 298° |
| 2026-04-20 22:24 | 38.00219 | 58.30772 | 2665 ft | 198 kts | 298° |
| 2026-04-20 22:24 | 38.00920 | 58.29174 | 2996 ft | 219 kts | 298° |
| 2026-04-20 22:24 | 38.01702 | 58.27394 | 3428 ft | 239 kts | 298° |
| 2026-04-20 22:24 | 38.02671 | 58.25600 | 4062 ft | 253 kts | 309° |
| 2026-04-20 22:25 | 38.04027 | 58.24159 | 4804 ft | 263 kts | 326° |
| 2026-04-20 22:25 | 38.05577 | 58.22930 | 5595 ft | 267 kts | 323° |
| 2026-04-20 22:25 | 38.07073 | 58.21536 | 6363 ft | 271 kts | 320° |
| 2026-04-20 22:25 | 38.08573 | 58.20071 | 7156 ft | 275 kts | 320° |
| 2026-04-20 22:26 | 38.10068 | 58.18590 | 7890 ft | 278 kts | 319° |
| 2026-04-20 22:26 | 38.11606 | 58.17050 | 8596 ft | 282 kts | 319° |
| 2026-04-20 22:26 | 38.13145 | 58.15501 | 9285 ft | 285 kts | 319° |
| 2026-04-20 22:27 | 38.16294 | 58.12324 | 10358 ft | 302 kts | 319° |
| 2026-04-20 22:27 | 38.17995 | 58.10605 | 10441 ft | 325 kts | 319° |
| 2026-04-20 22:27 | 38.19791 | 58.08798 | 10624 ft | 343 kts | 319° |
| 2026-04-20 22:27 | 38.21689 | 58.06890 | 11105 ft | 350 kts | 319° |
| 2026-04-20 22:28 | 38.23596 | 58.04970 | 11566 ft | 357 kts | 319° |
| 2026-04-20 22:28 | 38.25559 | 58.02991 | 12171 ft | 359 kts | 319° |
| 2026-04-20 22:28 | 38.27498 | 58.01036 | 12721 ft | 362 kts | 319° |
| 2026-04-20 22:28 | 38.29480 | 57.99035 | 13279 ft | 364 kts | 319° |
| 2026-04-20 22:29 | 38.31462 | 57.97035 | 13818 ft | 366 kts | 319° |
| 2026-04-20 22:29 | 38.33461 | 57.95018 | 14334 ft | 369 kts | 319° |
| 2026-04-20 22:29 | 38.35465 | 57.92992 | 14841 ft | 371 kts | 319° |
| 2026-04-20 22:29 | 38.37483 | 57.90951 | 15327 ft | 373 kts | 319° |
| 2026-04-20 22:30 | 38.39531 | 57.88883 | 15806 ft | 376 kts | 319° |
| 2026-04-20 22:30 | 38.41581 | 57.86813 | 16267 ft | 378 kts | 319° |
| 2026-04-20 22:30 | 38.43615 | 57.84759 | 16711 ft | 380 kts | 319° |
| 2026-04-20 22:30 | 38.45695 | 57.82660 | 17147 ft | 382 kts | 319° |
| 2026-04-20 22:31 | 38.47782 | 57.80555 | 17573 ft | 384 kts | 319° |
| 2026-04-20 22:31 | 38.49880 | 57.78439 | 17982 ft | 386 kts | 319° |
| 2026-04-20 22:31 | 38.51984 | 57.76316 | 18379 ft | 388 kts | 319° |
| 2026-04-20 22:31 | 38.54102 | 57.74180 | 18775 ft | 390 kts | 319° |
| 2026-04-20 22:32 | 38.56232 | 57.72031 | 19149 ft | 392 kts | 319° |
| 2026-04-20 22:32 | 38.58369 | 57.69883 | 19521 ft | 393 kts | 319° |
| 2026-04-20 22:32 | 38.60352 | 57.67559 | 19818 ft | 393 kts | 307° |
| 2026-04-20 22:32 | 38.61835 | 57.64635 | 20263 ft | 388 kts | 297° |
| 2026-04-20 22:33 | 38.63068 | 57.61573 | 20501 ft | 391 kts | 291° |
| 2026-04-20 22:33 | 38.64025 | 57.58316 | 20919 ft | 389 kts | 288° |
| 2026-04-20 22:33 | 38.64940 | 57.55066 | 21157 ft | 393 kts | 289° |
| 2026-04-20 22:33 | 38.65892 | 57.51812 | 21537 ft | 393 kts | 289° |
| 2026-04-20 22:34 | 38.66839 | 57.48560 | 21833 ft | 395 kts | 289° |
| 2026-04-20 22:34 | 38.67792 | 57.45248 | 22105 ft | 397 kts | 289° |
| 2026-04-20 22:34 | 38.68741 | 57.41934 | 22457 ft | 396 kts | 289° |
| 2026-04-20 22:34 | 38.69680 | 57.38653 | 22765 ft | 397 kts | 289° |
| 2026-04-20 22:35 | 38.70627 | 57.35331 | 23012 ft | 399 kts | 289° |
| 2026-04-20 22:35 | 38.71590 | 57.31949 | 23336 ft | 399 kts | 288° |
| 2026-04-20 22:35 | 38.72540 | 57.28604 | 23589 ft | 401 kts | 288° |
| 2026-04-20 22:35 | 38.73483 | 57.25280 | 23848 ft | 403 kts | 288° |
| 2026-04-20 22:36 | 38.74432 | 57.21927 | 24116 ft | 403 kts | 288° |
| 2026-04-20 22:36 | 38.75398 | 57.18510 | 24354 ft | 405 kts | 288° |
| 2026-04-20 22:36 | 38.76351 | 57.15136 | 24597 ft | 406 kts | 288° |
| 2026-04-20 22:36 | 38.77314 | 57.11722 | 24849 ft | 407 kts | 288° |
| 2026-04-20 22:37 | 38.78275 | 57.08306 | 25078 ft | 408 kts | 288° |
| 2026-04-20 22:37 | 38.79236 | 57.04890 | 25348 ft | 408 kts | 288° |
| 2026-04-20 22:37 | 38.80184 | 57.01512 | 25541 ft | 410 kts | 288° |
| 2026-04-20 22:37 | 38.81147 | 56.98080 | 25807 ft | 409 kts | 288° |
| 2026-04-20 22:38 | 38.82109 | 56.94646 | 26032 ft | 410 kts | 288° |
| 2026-04-20 22:38 | 38.83065 | 56.91226 | 26238 ft | 411 kts | 288° |
| 2026-04-20 22:38 | 38.84035 | 56.87753 | 26461 ft | 411 kts | 288° |
| 2026-04-20 22:38 | 38.84996 | 56.84307 | 26652 ft | 412 kts | 288° |
| 2026-04-20 22:39 | 38.85959 | 56.80865 | 26794 ft | 414 kts | 288° |
| 2026-04-20 22:39 | 38.86924 | 56.77410 | 26997 ft | 414 kts | 288° |
| 2026-04-20 22:39 | 38.87897 | 56.73925 | 27154 ft | 415 kts | 288° |
| 2026-04-20 22:39 | 38.88873 | 56.70411 | 27344 ft | 415 kts | 288° |
| 2026-04-20 22:40 | 38.89830 | 56.66946 | 27536 ft | 416 kts | 288° |
| 2026-04-20 22:40 | 38.90802 | 56.63412 | 27632 ft | 418 kts | 288° |
| 2026-04-20 22:40 | 38.91757 | 56.59945 | 27833 ft | 418 kts | 288° |
| 2026-04-20 22:40 | 38.92733 | 56.56422 | 27966 ft | 419 kts | 288° |
| 2026-04-20 22:41 | 38.93711 | 56.52898 | 28126 ft | 419 kts | 288° |
| 2026-04-20 22:41 | 38.94680 | 56.49388 | 28296 ft | 419 kts | 288° |
| 2026-04-20 22:41 | 38.95647 | 56.45863 | 28415 ft | 420 kts | 287° |
| 2026-04-20 22:41 | 38.96619 | 56.42306 | 28536 ft | 421 kts | 287° |
| 2026-04-20 22:42 | 38.97579 | 56.38790 | 28667 ft | 422 kts | 287° |
| 2026-04-20 22:42 | 38.98547 | 56.35251 | 28803 ft | 422 kts | 287° |
| 2026-04-20 22:42 | 38.99525 | 56.31679 | 28950 ft | 422 kts | 287° |
| 2026-04-20 22:42 | 39.00483 | 56.28096 | 29095 ft | 422 kts | 285° |
| 2026-04-20 22:43 | 39.01320 | 56.24492 | 29206 ft | 422 kts | 283° |
| 2026-04-20 22:43 | 39.02114 | 56.20860 | 29334 ft | 423 kts | 283° |
| 2026-04-20 22:43 | 39.02927 | 56.17234 | 29439 ft | 424 kts | 284° |
| 2026-04-20 22:43 | 39.03762 | 56.13599 | 29530 ft | 425 kts | 284° |
| 2026-04-20 22:44 | 39.04596 | 56.09983 | 29646 ft | 425 kts | 284° |
| 2026-04-20 22:44 | 39.05429 | 56.06343 | 29872 ft | 423 kts | 284° |
| 2026-04-20 22:44 | 39.06249 | 56.02717 | 30080 ft | 421 kts | 284° |
| 2026-04-20 22:44 | 39.07049 | 55.99152 | 30245 ft | 420 kts | 284° |
| 2026-04-20 22:45 | 39.07866 | 55.95534 | 30411 ft | 419 kts | 284° |
| 2026-04-20 22:45 | 39.08686 | 55.91939 | 30608 ft | 417 kts | 284° |
| 2026-04-20 22:45 | 39.09498 | 55.88398 | 30787 ft | 416 kts | 284° |
| 2026-04-20 22:45 | 39.10318 | 55.84808 | 30894 ft | 416 kts | 284° |
| 2026-04-20 22:46 | 39.11118 | 55.81273 | 31010 ft | 416 kts | 284° |
| 2026-04-20 22:46 | 39.11921 | 55.77689 | 31136 ft | 416 kts | 284° |
| 2026-04-20 22:46 | 39.13508 | 55.70572 | 31328 ft | 416 kts | 284° |
| 2026-04-20 22:47 | 39.14320 | 55.66973 | 31439 ft | 416 kts | 284° |
| 2026-04-20 22:47 | 39.15125 | 55.63422 | 31560 ft | 416 kts | 284° |
| 2026-04-20 22:47 | 39.15926 | 55.59858 | 31669 ft | 415 kts | 284° |
| 2026-04-20 22:47 | 39.16731 | 55.56266 | 31770 ft | 415 kts | 284° |
| 2026-04-20 22:48 | 39.17533 | 55.52692 | 31910 ft | 414 kts | 284° |
| 2026-04-20 22:48 | 39.18317 | 55.49184 | 32016 ft | 414 kts | 284° |
| 2026-04-20 22:48 | 39.19900 | 55.42036 | 32243 ft | 413 kts | 284° |
| 2026-04-20 22:49 | 39.20678 | 55.38519 | 32352 ft | 412 kts | 284° |
| 2026-04-20 22:49 | 39.21470 | 55.34947 | 32445 ft | 412 kts | 283° |
| 2026-04-20 22:49 | 39.22251 | 55.31443 | 32606 ft | 410 kts | 284° |
| 2026-04-20 22:49 | 39.23037 | 55.27891 | 32798 ft | 408 kts | 284° |
| 2026-04-20 22:50 | 39.23804 | 55.24411 | 32913 ft | 408 kts | 283° |
| 2026-04-20 22:50 | 39.24577 | 55.20878 | 33021 ft | 407 kts | 284° |
| 2026-04-20 22:50 | 39.25342 | 55.17374 | 33172 ft | 406 kts | 283° |
| 2026-04-20 22:50 | 39.26109 | 55.13878 | 33249 ft | 407 kts | 284° |
| 2026-04-20 22:51 | 39.27643 | 55.06857 | 33437 ft | 406 kts | 283° |
| 2026-04-20 22:51 | 39.29165 | 54.99882 | 33613 ft | 406 kts | 283° |
| 2026-04-20 22:52 | 39.30683 | 54.92881 | 33795 ft | 405 kts | 283° |
| 2026-04-20 22:52 | 39.32196 | 54.85896 | 33952 ft | 405 kts | 283° |
| 2026-04-20 22:53 | 39.33691 | 54.78901 | 34105 ft | 405 kts | 283° |
| 2026-04-20 22:53 | 39.35169 | 54.71908 | 34267 ft | 405 kts | 283° |
| 2026-04-20 22:54 | 39.36648 | 54.64890 | 34419 ft | 404 kts | 283° |
| 2026-04-20 22:54 | 39.38133 | 54.57914 | 34589 ft | 403 kts | 283° |
| 2026-04-20 22:55 | 39.39600 | 54.50969 | 34746 ft | 402 kts | 283° |
| 2026-04-20 22:55 | 39.41081 | 54.43992 | 34914 ft | 401 kts | 283° |
| 2026-04-20 22:56 | 39.42545 | 54.37098 | 35078 ft | 400 kts | 283° |
| 2026-04-20 22:56 | 39.44005 | 54.30174 | 35240 ft | 399 kts | 283° |
| 2026-04-20 22:57 | 39.44729 | 54.26716 | 35347 ft | 398 kts | 282° |
| 2026-04-20 22:57 | 39.45452 | 54.23246 | 35420 ft | 398 kts | 283° |
| 2026-04-20 22:57 | 39.46909 | 54.16369 | 35571 ft | 397 kts | 283° |
| 2026-04-20 22:58 | 39.48374 | 54.09518 | 35724 ft | 396 kts | 283° |
| 2026-04-20 22:58 | 39.49806 | 54.02668 | 35881 ft | 395 kts | 283° |
| 2026-04-20 22:59 | 39.51210 | 53.95831 | 36041 ft | 394 kts | 282° |
| 2026-04-20 22:59 | 39.52601 | 53.88995 | 36102 ft | 395 kts | 283° |
| 2026-04-20 23:00 | 39.54012 | 53.82078 | 36101 ft | 397 kts | 283° |
| 2026-04-20 23:00 | 39.55411 | 53.75153 | 36101 ft | 400 kts | 283° |
| 2026-04-20 23:01 | 39.56820 | 53.68179 | 36100 ft | 400 kts | 283° |
| 2026-04-20 23:01 | 39.58220 | 53.61229 | 36101 ft | 400 kts | 283° |